sensor_id;sensor_type;location;lat;lon;timestamp;P1;durP1;ratioP1;P2;durP2;ratioP2
50757;SDS011;36732;47.980;11.652;2024-01-07T00:02:10;0.75;;;0.75;;
50757;SDS011;36732;47.980;11.652;2024-01-07T00:04:36;2.47;;;0.90;;
50757;SDS011;36732;47.980;11.652;2024-01-07T00:07:03;0.82;;;0.82;;
50757;SDS011;36732;47.980;11.652;2024-01-07T00:09:30;1.15;;;1.05;;
50757;SDS011;36732;47.980;11.652;2024-01-07T00:11:55;0.70;;;0.70;;
50757;SDS011;36732;47.980;11.652;2024-01-07T00:14:21;0.75;;;0.75;;
50757;SDS011;36732;47.980;11.652;2024-01-07T00:16:47;0.70;;;0.70;;
50757;SDS011;36732;47.980;11.652;2024-01-07T00:19:12;0.77;;;0.77;;
50757;SDS011;36732;47.980;11.652;2024-01-07T00:21:38;0.90;;;0.90;;
50757;SDS011;36732;47.980;11.652;2024-01-07T00:24:04;1.15;;;1.05;;
50757;SDS011;36732;47.980;11.652;2024-01-07T00:26:30;1.20;;;1.10;;
50757;SDS011;36732;47.980;11.652;2024-01-07T00:28:55;0.90;;;0.80;;
50757;SDS011;36732;47.980;11.652;2024-01-07T00:31:21;1.10;;;1.00;;
50757;SDS011;36732;47.980;11.652;2024-01-07T00:33:47;1.20;;;1.10;;
50757;SDS011;36732;47.980;11.652;2024-01-07T00:36:12;0.80;;;0.80;;
50757;SDS011;36732;47.980;11.652;2024-01-07T00:38:38;0.90;;;0.90;;
50757;SDS011;36732;47.980;11.652;2024-01-07T00:41:04;1.10;;;1.00;;
50757;SDS011;36732;47.980;11.652;2024-01-07T00:43:29;0.85;;;0.80;;
50757;SDS011;36732;47.980;11.652;2024-01-07T00:45:55;0.73;;;0.70;;
50757;SDS011;36732;47.980;11.652;2024-01-07T00:48:21;1.10;;;1.00;;
50757;SDS011;36732;47.980;11.652;2024-01-07T00:50:47;0.90;;;0.90;;
50757;SDS011;36732;47.980;11.652;2024-01-07T00:53:12;0.85;;;0.80;;
50757;SDS011;36732;47.980;11.652;2024-01-07T00:55:38;1.02;;;0.93;;
50757;SDS011;36732;47.980;11.652;2024-01-07T00:58:03;0.90;;;0.90;;
50757;SDS011;36732;47.980;11.652;2024-01-07T01:00:29;0.90;;;0.90;;
50757;SDS011;36732;47.980;11.652;2024-01-07T01:02:55;0.95;;;0.88;;
50757;SDS011;36732;47.980;11.652;2024-01-07T01:05:21;1.17;;;1.08;;
50757;SDS011;36732;47.980;11.652;2024-01-07T01:07:46;0.80;;;0.80;;
50757;SDS011;36732;47.980;11.652;2024-01-07T01:10:12;1.33;;;1.23;;
50757;SDS011;36732;47.980;11.652;2024-01-07T01:12:41;1.10;;;1.00;;
50757;SDS011;36732;47.980;11.652;2024-01-07T01:15:08;1.38;;;1.27;;
50757;SDS011;36732;47.980;11.652;2024-01-07T01:17:34;1.45;;;1.35;;
50757;SDS011;36732;47.980;11.652;2024-01-07T01:20:00;1.10;;;1.00;;
50757;SDS011;36732;47.980;11.652;2024-01-07T01:22:25;1.40;;;1.30;;
50757;SDS011;36732;47.980;11.652;2024-01-07T01:24:51;1.75;;;1.40;;
50757;SDS011;36732;47.980;11.652;2024-01-07T01:27:18;1.20;;;1.10;;
50757;SDS011;36732;47.980;11.652;2024-01-07T01:29:44;1.30;;;1.20;;
50757;SDS011;36732;47.980;11.652;2024-01-07T01:32:09;1.58;;;1.48;;
50757;SDS011;36732;47.980;11.652;2024-01-07T01:34:35;1.20;;;1.10;;
50757;SDS011;36732;47.980;11.652;2024-01-07T01:37:01;1.33;;;1.23;;
50757;SDS011;36732;47.980;11.652;2024-01-07T01:39:28;1.40;;;1.30;;
50757;SDS011;36732;47.980;11.652;2024-01-07T01:41:54;1.20;;;1.10;;
50757;SDS011;36732;47.980;11.652;2024-01-07T01:44:20;1.00;;;0.95;;
50757;SDS011;36732;47.980;11.652;2024-01-07T01:46:46;1.30;;;1.20;;
50757;SDS011;36732;47.980;11.652;2024-01-07T01:49:12;1.30;;;1.20;;
50757;SDS011;36732;47.980;11.652;2024-01-07T01:51:39;1.25;;;1.15;;
50757;SDS011;36732;47.980;11.652;2024-01-07T01:54:05;1.30;;;1.20;;
50757;SDS011;36732;47.980;11.652;2024-01-07T01:56:31;1.20;;;1.10;;
50757;SDS011;36732;47.980;11.652;2024-01-07T01:58:58;1.27;;;1.17;;
50757;SDS011;36732;47.980;11.652;2024-01-07T02:01:24;1.10;;;1.00;;
50757;SDS011;36732;47.980;11.652;2024-01-07T02:03:50;1.02;;;1.02;;
50757;SDS011;36732;47.980;11.652;2024-01-07T02:06:17;1.13;;;1.02;;
50757;SDS011;36732;47.980;11.652;2024-01-07T02:08:44;1.00;;;1.00;;
50757;SDS011;36732;47.980;11.652;2024-01-07T02:11:20;1.00;;;0.90;;
50757;SDS011;36732;47.980;11.652;2024-01-07T02:13:47;1.10;;;1.00;;
50757;SDS011;36732;47.980;11.652;2024-01-07T02:16:13;0.80;;;0.80;;
50757;SDS011;36732;47.980;11.652;2024-01-07T02:18:43;1.00;;;0.98;;
50757;SDS011;36732;47.980;11.652;2024-01-07T02:21:10;1.13;;;1.02;;
50757;SDS011;36732;47.980;11.652;2024-01-07T02:23:38;0.93;;;0.90;;
50757;SDS011;36732;47.980;11.652;2024-01-07T02:26:03;0.80;;;0.80;;
50757;SDS011;36732;47.980;11.652;2024-01-07T02:28:30;0.90;;;0.90;;
50757;SDS011;36732;47.980;11.652;2024-01-07T02:30:56;0.90;;;0.80;;
50757;SDS011;36732;47.980;11.652;2024-01-07T02:33:22;0.85;;;0.85;;
50757;SDS011;36732;47.980;11.652;2024-01-07T02:35:48;1.20;;;1.10;;
50757;SDS011;36732;47.980;11.652;2024-01-07T02:38:14;0.82;;;0.82;;
50757;SDS011;36732;47.980;11.652;2024-01-07T02:40:39;0.80;;;0.80;;
50757;SDS011;36732;47.980;11.652;2024-01-07T02:43:05;0.80;;;0.70;;
50757;SDS011;36732;47.980;11.652;2024-01-07T02:45:31;0.60;;;0.60;;
50757;SDS011;36732;47.980;11.652;2024-01-07T02:47:56;0.75;;;0.75;;
50757;SDS011;36732;47.980;11.652;2024-01-07T02:50:22;0.80;;;0.80;;
50757;SDS011;36732;47.980;11.652;2024-01-07T02:52:48;0.93;;;0.80;;
50757;SDS011;36732;47.980;11.652;2024-01-07T02:55:13;0.70;;;0.70;;
50757;SDS011;36732;47.980;11.652;2024-01-07T02:57:39;0.60;;;0.60;;
50757;SDS011;36732;47.980;11.652;2024-01-07T03:00:05;0.70;;;0.70;;
50757;SDS011;36732;47.980;11.652;2024-01-07T03:02:32;0.50;;;0.50;;
50757;SDS011;36732;47.980;11.652;2024-01-07T03:04:58;0.75;;;0.70;;
50757;SDS011;36732;47.980;11.652;2024-01-07T03:07:24;0.50;;;0.50;;
50757;SDS011;36732;47.980;11.652;2024-01-07T03:09:50;0.50;;;0.50;;
50757;SDS011;36732;47.980;11.652;2024-01-07T03:12:16;0.40;;;0.40;;
50757;SDS011;36732;47.980;11.652;2024-01-07T03:14:42;0.52;;;0.52;;
50757;SDS011;36732;47.980;11.652;2024-01-07T03:17:09;0.40;;;0.40;;
50757;SDS011;36732;47.980;11.652;2024-01-07T03:19:35;0.50;;;0.50;;
50757;SDS011;36732;47.980;11.652;2024-01-07T03:22:03;0.47;;;0.47;;
50757;SDS011;36732;47.980;11.652;2024-01-07T03:24:30;0.30;;;0.30;;
50757;SDS011;36732;47.980;11.652;2024-01-07T03:26:56;0.50;;;0.50;;
50757;SDS011;36732;47.980;11.652;2024-01-07T03:29:22;0.43;;;0.43;;
50757;SDS011;36732;47.980;11.652;2024-01-07T03:31:47;0.70;;;0.70;;
50757;SDS011;36732;47.980;11.652;2024-01-07T03:34:13;0.43;;;0.43;;
50757;SDS011;36732;47.980;11.652;2024-01-07T03:36:39;0.50;;;0.50;;
50757;SDS011;36732;47.980;11.652;2024-01-07T03:39:04;0.60;;;0.60;;
50757;SDS011;36732;47.980;11.652;2024-01-07T03:41:30;0.55;;;0.55;;
50757;SDS011;36732;47.980;11.652;2024-01-07T03:43:56;0.60;;;0.60;;
50757;SDS011;36732;47.980;11.652;2024-01-07T03:46:21;0.40;;;0.40;;
50757;SDS011;36732;47.980;11.652;2024-01-07T03:48:47;0.60;;;0.50;;
50757;SDS011;36732;47.980;11.652;2024-01-07T03:51:13;0.43;;;0.43;;
50757;SDS011;36732;47.980;11.652;2024-01-07T03:53:39;0.60;;;0.55;;
50757;SDS011;36732;47.980;11.652;2024-01-07T03:56:05;0.82;;;0.70;;
50757;SDS011;36732;47.980;11.652;2024-01-07T03:58:31;0.82;;;0.57;;
50757;SDS011;36732;47.980;11.652;2024-01-07T04:00:56;0.50;;;0.50;;
50757;SDS011;36732;47.980;11.652;2024-01-07T04:03:22;0.40;;;0.40;;
50757;SDS011;36732;47.980;11.652;2024-01-07T04:05:48;0.60;;;0.60;;
50757;SDS011;36732;47.980;11.652;2024-01-07T04:08:14;0.50;;;0.47;;
50757;SDS011;36732;47.980;11.652;2024-01-07T04:10:42;0.50;;;0.50;;
50757;SDS011;36732;47.980;11.652;2024-01-07T04:13:08;0.50;;;0.40;;
50757;SDS011;36732;47.980;11.652;2024-01-07T04:15:33;0.60;;;0.60;;
50757;SDS011;36732;47.980;11.652;2024-01-07T04:18:03;0.43;;;0.43;;
50757;SDS011;36732;47.980;11.652;2024-01-07T04:20:29;0.50;;;0.50;;
50757;SDS011;36732;47.980;11.652;2024-01-07T04:22:56;0.57;;;0.57;;
50757;SDS011;36732;47.980;11.652;2024-01-07T04:25:22;0.60;;;0.60;;
50757;SDS011;36732;47.980;11.652;2024-01-07T04:27:48;0.50;;;0.50;;
50757;SDS011;36732;47.980;11.652;2024-01-07T04:30:14;0.80;;;0.80;;
50757;SDS011;36732;47.980;11.652;2024-01-07T04:32:40;0.50;;;0.50;;
50757;SDS011;36732;47.980;11.652;2024-01-07T04:35:05;1.20;;;0.50;;
50757;SDS011;36732;47.980;11.652;2024-01-07T04:37:32;0.60;;;0.55;;
50757;SDS011;36732;47.980;11.652;2024-01-07T04:39:58;0.65;;;0.65;;
50757;SDS011;36732;47.980;11.652;2024-01-07T04:42:24;0.50;;;0.50;;
50757;SDS011;36732;47.980;11.652;2024-01-07T04:44:49;0.43;;;0.43;;
50757;SDS011;36732;47.980;11.652;2024-01-07T04:47:33;0.60;;;0.60;;
50757;SDS011;36732;47.980;11.652;2024-01-07T04:52:25;0.65;;;0.65;;
50757;SDS011;36732;47.980;11.652;2024-01-07T04:54:51;0.98;;;0.70;;
50757;SDS011;36732;47.980;11.652;2024-01-07T04:57:18;0.73;;;0.60;;
50757;SDS011;36732;47.980;11.652;2024-01-07T04:59:44;0.60;;;0.60;;
50757;SDS011;36732;47.980;11.652;2024-01-07T05:02:11;0.52;;;0.52;;
50757;SDS011;36732;47.980;11.652;2024-01-07T05:04:37;0.80;;;0.70;;
50757;SDS011;36732;47.980;11.652;2024-01-07T05:07:03;0.60;;;0.57;;
50757;SDS011;36732;47.980;11.652;2024-01-07T05:09:29;0.60;;;0.60;;
50757;SDS011;36732;47.980;11.652;2024-01-07T05:11:57;0.60;;;0.60;;
50757;SDS011;36732;47.980;11.652;2024-01-07T05:14:22;0.60;;;0.60;;
50757;SDS011;36732;47.980;11.652;2024-01-07T05:16:48;0.75;;;0.75;;
50757;SDS011;36732;47.980;11.652;2024-01-07T05:19:14;0.60;;;0.60;;
50757;SDS011;36732;47.980;11.652;2024-01-07T05:21:40;0.70;;;0.70;;
50757;SDS011;36732;47.980;11.652;2024-01-07T05:24:05;1.17;;;1.05;;
50757;SDS011;36732;47.980;11.652;2024-01-07T05:26:37;0.60;;;0.60;;
50757;SDS011;36732;47.980;11.652;2024-01-07T05:29:05;0.60;;;0.60;;
50757;SDS011;36732;47.980;11.652;2024-01-07T05:31:30;1.20;;;0.82;;
50757;SDS011;36732;47.980;11.652;2024-01-07T05:33:56;0.65;;;0.65;;
50757;SDS011;36732;47.980;11.652;2024-01-07T05:36:22;0.63;;;0.63;;
50757;SDS011;36732;47.980;11.652;2024-01-07T05:38:48;0.80;;;0.80;;
50757;SDS011;36732;47.980;11.652;2024-01-07T05:41:13;0.63;;;0.63;;
50757;SDS011;36732;47.980;11.652;2024-01-07T05:43:39;0.70;;;0.70;;
50757;SDS011;36732;47.980;11.652;2024-01-07T05:46:04;0.90;;;0.90;;
50757;SDS011;36732;47.980;11.652;2024-01-07T05:48:40;0.70;;;0.70;;
50757;SDS011;36732;47.980;11.652;2024-01-07T05:51:10;0.60;;;0.60;;
50757;SDS011;36732;47.980;11.652;2024-01-07T05:53:36;0.80;;;0.80;;
50757;SDS011;36732;47.980;11.652;2024-01-07T05:56:02;0.90;;;0.90;;
50757;SDS011;36732;47.980;11.652;2024-01-07T05:58:29;0.80;;;0.80;;
50757;SDS011;36732;47.980;11.652;2024-01-07T06:00:55;1.10;;;1.00;;
50757;SDS011;36732;47.980;11.652;2024-01-07T06:03:20;0.65;;;0.65;;
50757;SDS011;36732;47.980;11.652;2024-01-07T06:05:46;0.77;;;0.77;;
50757;SDS011;36732;47.980;11.652;2024-01-07T06:08:12;0.80;;;0.80;;
50757;SDS011;36732;47.980;11.652;2024-01-07T06:10:38;0.93;;;0.90;;
50757;SDS011;36732;47.980;11.652;2024-01-07T06:13:04;0.80;;;0.80;;
50757;SDS011;36732;47.980;11.652;2024-01-07T06:15:30;1.13;;;1.02;;
50757;SDS011;36732;47.980;11.652;2024-01-07T06:17:56;0.90;;;0.90;;
50757;SDS011;36732;47.980;11.652;2024-01-07T06:20:22;0.90;;;0.90;;
50757;SDS011;36732;47.980;11.652;2024-01-07T06:22:48;0.93;;;0.90;;
50757;SDS011;36732;47.980;11.652;2024-01-07T06:25:14;0.90;;;0.90;;
50757;SDS011;36732;47.980;11.652;2024-01-07T06:27:40;1.15;;;1.05;;
50757;SDS011;36732;47.980;11.652;2024-01-07T06:30:06;1.13;;;1.02;;
50757;SDS011;36732;47.980;11.652;2024-01-07T06:32:33;1.05;;;1.05;;
50757;SDS011;36732;47.980;11.652;2024-01-07T06:34:59;1.30;;;1.08;;
50757;SDS011;36732;47.980;11.652;2024-01-07T06:37:25;1.00;;;0.93;;
50757;SDS011;36732;47.980;11.652;2024-01-07T06:39:50;1.20;;;1.10;;
50757;SDS011;36732;47.980;11.652;2024-01-07T06:42:16;1.20;;;1.10;;
50757;SDS011;36732;47.980;11.652;2024-01-07T06:44:42;1.30;;;1.20;;
50757;SDS011;36732;47.980;11.652;2024-01-07T06:47:08;1.30;;;1.20;;
50757;SDS011;36732;47.980;11.652;2024-01-07T06:49:33;1.30;;;1.02;;
50757;SDS011;36732;47.980;11.652;2024-01-07T06:51:59;1.55;;;1.45;;
50757;SDS011;36732;47.980;11.652;2024-01-07T06:54:25;1.50;;;1.40;;
50757;SDS011;36732;47.980;11.652;2024-01-07T06:56:51;1.70;;;1.60;;
50757;SDS011;36732;47.980;11.652;2024-01-07T06:59:17;1.98;;;1.58;;
50757;SDS011;36732;47.980;11.652;2024-01-07T07:01:42;1.67;;;1.58;;
50757;SDS011;36732;47.980;11.652;2024-01-07T07:04:08;1.35;;;1.25;;
50757;SDS011;36732;47.980;11.652;2024-01-07T07:06:34;1.65;;;1.50;;
50757;SDS011;36732;47.980;11.652;2024-01-07T07:09:00;2.35;;;1.90;;
50757;SDS011;36732;47.980;11.652;2024-01-07T07:11:25;1.92;;;1.73;;
50757;SDS011;36732;47.980;11.652;2024-01-07T07:13:51;1.67;;;1.58;;
50757;SDS011;36732;47.980;11.652;2024-01-07T07:16:17;1.60;;;1.50;;
50757;SDS011;36732;47.980;11.652;2024-01-07T07:18:43;1.88;;;1.67;;
50757;SDS011;36732;47.980;11.652;2024-01-07T07:21:08;1.40;;;1.27;;
50757;SDS011;36732;47.980;11.652;2024-01-07T07:23:34;1.73;;;1.63;;
50757;SDS011;36732;47.980;11.652;2024-01-07T07:26:00;1.45;;;1.35;;
50757;SDS011;36732;47.980;11.652;2024-01-07T07:28:25;1.52;;;1.42;;
50757;SDS011;36732;47.980;11.652;2024-01-07T07:30:52;1.70;;;1.60;;
50757;SDS011;36732;47.980;11.652;2024-01-07T07:33:18;1.67;;;1.58;;
50757;SDS011;36732;47.980;11.652;2024-01-07T07:35:43;1.40;;;1.30;;
50757;SDS011;36732;47.980;11.652;2024-01-07T07:38:09;1.40;;;1.30;;
50757;SDS011;36732;47.980;11.652;2024-01-07T07:40:35;1.33;;;1.23;;
50757;SDS011;36732;47.980;11.652;2024-01-07T07:43:01;1.25;;;1.15;;
50757;SDS011;36732;47.980;11.652;2024-01-07T07:45:27;1.35;;;1.20;;
50757;SDS011;36732;47.980;11.652;2024-01-07T07:47:53;1.83;;;1.67;;
50757;SDS011;36732;47.980;11.652;2024-01-07T07:50:18;4.05;;;1.45;;
50757;SDS011;36732;47.980;11.652;2024-01-07T07:52:44;1.80;;;1.70;;
50757;SDS011;36732;47.980;11.652;2024-01-07T07:55:10;1.75;;;1.55;;
50757;SDS011;36732;47.980;11.652;2024-01-07T07:57:36;2.10;;;1.90;;
50757;SDS011;36732;47.980;11.652;2024-01-07T08:00:05;2.30;;;1.73;;
50757;SDS011;36732;47.980;11.652;2024-01-07T08:02:32;2.88;;;2.13;;
50757;SDS011;36732;47.980;11.652;2024-01-07T08:04:58;1.67;;;1.58;;
50757;SDS011;36732;47.980;11.652;2024-01-07T08:07:24;3.45;;;1.80;;
50757;SDS011;36732;47.980;11.652;2024-01-07T08:09:51;2.50;;;2.15;;
50757;SDS011;36732;47.980;11.652;2024-01-07T08:12:16;2.15;;;1.90;;
50757;SDS011;36732;47.980;11.652;2024-01-07T08:14:42;2.47;;;1.60;;
50757;SDS011;36732;47.980;11.652;2024-01-07T08:17:08;2.35;;;1.80;;
50757;SDS011;36732;47.980;11.652;2024-01-07T08:19:33;1.92;;;1.70;;
50757;SDS011;36732;47.980;11.652;2024-01-07T08:22:00;2.05;;;1.42;;
50757;SDS011;36732;47.980;11.652;2024-01-07T08:24:26;2.33;;;1.80;;
50757;SDS011;36732;47.980;11.652;2024-01-07T08:26:52;2.60;;;2.03;;
50757;SDS011;36732;47.980;11.652;2024-01-07T08:29:19;2.20;;;1.60;;
50757;SDS011;36732;47.980;11.652;2024-01-07T08:31:45;2.55;;;2.10;;
50757;SDS011;36732;47.980;11.652;2024-01-07T08:34:11;2.47;;;1.92;;
50757;SDS011;36732;47.980;11.652;2024-01-07T08:36:36;3.25;;;2.20;;
50757;SDS011;36732;47.980;11.652;2024-01-07T08:39:03;2.25;;;2.03;;
50757;SDS011;36732;47.980;11.652;2024-01-07T08:41:29;2.03;;;1.70;;
50757;SDS011;36732;47.980;11.652;2024-01-07T08:43:54;2.03;;;1.83;;
50757;SDS011;36732;47.980;11.652;2024-01-07T08:46:20;2.15;;;1.77;;
50757;SDS011;36732;47.980;11.652;2024-01-07T08:48:46;2.85;;;1.83;;
50757;SDS011;36732;47.980;11.652;2024-01-07T08:51:12;2.90;;;1.77;;
50757;SDS011;36732;47.980;11.652;2024-01-07T08:53:38;2.15;;;1.95;;
50757;SDS011;36732;47.980;11.652;2024-01-07T08:56:05;2.47;;;1.83;;
50757;SDS011;36732;47.980;11.652;2024-01-07T08:58:31;2.40;;;2.05;;
50757;SDS011;36732;47.980;11.652;2024-01-07T09:00:57;3.08;;;2.40;;
50757;SDS011;36732;47.980;11.652;2024-01-07T09:03:23;3.65;;;3.10;;
50757;SDS011;36732;47.980;11.652;2024-01-07T09:05:49;5.20;;;3.35;;
50757;SDS011;36732;47.980;11.652;2024-01-07T09:08:15;3.92;;;3.13;;
50757;SDS011;36732;47.980;11.652;2024-01-07T09:10:40;8.02;;;7.22;;
50757;SDS011;36732;47.980;11.652;2024-01-07T09:13:06;3.95;;;2.97;;
50757;SDS011;36732;47.980;11.652;2024-01-07T09:15:32;3.28;;;2.80;;
50757;SDS011;36732;47.980;11.652;2024-01-07T09:17:57;4.10;;;2.95;;
50757;SDS011;36732;47.980;11.652;2024-01-07T09:20:23;2.72;;;2.30;;
50757;SDS011;36732;47.980;11.652;2024-01-07T09:22:49;2.65;;;2.05;;
50757;SDS011;36732;47.980;11.652;2024-01-07T09:25:15;2.90;;;2.10;;
50757;SDS011;36732;47.980;11.652;2024-01-07T09:27:41;3.00;;;2.38;;
50757;SDS011;36732;47.980;11.652;2024-01-07T09:30:08;3.20;;;2.72;;
50757;SDS011;36732;47.980;11.652;2024-01-07T09:32:36;18.17;;;10.60;;
50757;SDS011;36732;47.980;11.652;2024-01-07T09:35:02;5.45;;;3.53;;
50757;SDS011;36732;47.980;11.652;2024-01-07T09:37:30;3.80;;;2.92;;
50757;SDS011;36732;47.980;11.652;2024-01-07T09:39:56;3.13;;;2.47;;
50757;SDS011;36732;47.980;11.652;2024-01-07T09:42:22;4.65;;;3.80;;
50757;SDS011;36732;47.980;11.652;2024-01-07T09:44:48;3.03;;;2.72;;
50757;SDS011;36732;47.980;11.652;2024-01-07T09:47:16;3.60;;;2.70;;
50757;SDS011;36732;47.980;11.652;2024-01-07T09:49:42;6.05;;;3.67;;
50757;SDS011;36732;47.980;11.652;2024-01-07T09:52:09;3.75;;;3.17;;
50757;SDS011;36732;47.980;11.652;2024-01-07T09:54:36;4.45;;;4.05;;
50757;SDS011;36732;47.980;11.652;2024-01-07T09:57:04;3.90;;;2.88;;
50757;SDS011;36732;47.980;11.652;2024-01-07T09:59:32;4.57;;;3.88;;
50757;SDS011;36732;47.980;11.652;2024-01-07T10:02:01;4.13;;;3.60;;
50757;SDS011;36732;47.980;11.652;2024-01-07T10:04:28;3.35;;;3.03;;
50757;SDS011;36732;47.980;11.652;2024-01-07T10:06:55;3.85;;;3.30;;
50757;SDS011;36732;47.980;11.652;2024-01-07T10:09:32;3.33;;;2.97;;
50757;SDS011;36732;47.980;11.652;2024-01-07T10:11:58;4.45;;;3.33;;
50757;SDS011;36732;47.980;11.652;2024-01-07T10:14:25;3.40;;;2.65;;
50757;SDS011;36732;47.980;11.652;2024-01-07T10:16:51;3.67;;;2.90;;
50757;SDS011;36732;47.980;11.652;2024-01-07T10:19:23;4.13;;;3.10;;
50757;SDS011;36732;47.980;11.652;2024-01-07T10:21:59;3.97;;;3.30;;
50757;SDS011;36732;47.980;11.652;2024-01-07T10:24:35;4.90;;;3.00;;
50757;SDS011;36732;47.980;11.652;2024-01-07T10:27:03;3.45;;;2.90;;
50757;SDS011;36732;47.980;11.652;2024-01-07T10:29:30;3.80;;;2.85;;
50757;SDS011;36732;47.980;11.652;2024-01-07T10:31:59;3.92;;;3.05;;
50757;SDS011;36732;47.980;11.652;2024-01-07T10:34:32;3.75;;;3.08;;
50757;SDS011;36732;47.980;11.652;2024-01-07T10:37:00;4.70;;;3.80;;
50757;SDS011;36732;47.980;11.652;2024-01-07T10:39:29;2.92;;;2.50;;
50757;SDS011;36732;47.980;11.652;2024-01-07T10:41:55;4.65;;;3.47;;
50757;SDS011;36732;47.980;11.652;2024-01-07T10:44:26;3.95;;;3.05;;
50757;SDS011;36732;47.980;11.652;2024-01-07T10:46:55;4.57;;;3.55;;
50757;SDS011;36732;47.980;11.652;2024-01-07T10:49:22;3.83;;;3.42;;
50757;SDS011;36732;47.980;11.652;2024-01-07T10:51:51;5.35;;;4.15;;
50757;SDS011;36732;47.980;11.652;2024-01-07T10:54:33;6.10;;;4.88;;
50757;SDS011;36732;47.980;11.652;2024-01-07T10:59:39;6.10;;;4.10;;
50757;SDS011;36732;47.980;11.652;2024-01-07T11:02:07;6.43;;;5.18;;
50757;SDS011;36732;47.980;11.652;2024-01-07T11:04:42;4.50;;;3.58;;
50757;SDS011;36732;47.980;11.652;2024-01-07T11:07:44;4.07;;;3.40;;
50757;SDS011;36732;47.980;11.652;2024-01-07T11:10:22;3.80;;;2.92;;
50757;SDS011;36732;47.980;11.652;2024-01-07T11:12:57;6.15;;;3.92;;
50757;SDS011;36732;47.980;11.652;2024-01-07T11:18:21;3.17;;;2.65;;
50757;SDS011;36732;47.980;11.652;2024-01-07T11:23:27;4.10;;;3.42;;
50757;SDS011;36732;47.980;11.652;2024-01-07T11:25:58;4.28;;;2.78;;
50757;SDS011;36732;47.980;11.652;2024-01-07T11:31:18;4.10;;;2.92;;
50757;SDS011;36732;47.980;11.652;2024-01-07T11:34:08;3.38;;;2.83;;
50757;SDS011;36732;47.980;11.652;2024-01-07T11:36:37;3.85;;;2.70;;
50757;SDS011;36732;47.980;11.652;2024-01-07T11:39:04;3.45;;;2.92;;
50757;SDS011;36732;47.980;11.652;2024-01-07T11:41:33;3.90;;;2.67;;
50757;SDS011;36732;47.980;11.652;2024-01-07T11:44:00;4.10;;;3.22;;
50757;SDS011;36732;47.980;11.652;2024-01-07T11:46:27;3.88;;;3.03;;
50757;SDS011;36732;47.980;11.652;2024-01-07T11:48:56;3.22;;;2.53;;
50757;SDS011;36732;47.980;11.652;2024-01-07T11:51:26;3.17;;;2.88;;
50757;SDS011;36732;47.980;11.652;2024-01-07T11:53:59;3.20;;;2.87;;
50757;SDS011;36732;47.980;11.652;2024-01-07T11:56:26;4.55;;;3.65;;
50757;SDS011;36732;47.980;11.652;2024-01-07T11:58:53;4.78;;;4.00;;
50757;SDS011;36732;47.980;11.652;2024-01-07T12:01:22;8.57;;;6.45;;
50757;SDS011;36732;47.980;11.652;2024-01-07T12:03:47;7.25;;;4.57;;
50757;SDS011;36732;47.980;11.652;2024-01-07T12:06:14;4.82;;;4.05;;
50757;SDS011;36732;47.980;11.652;2024-01-07T12:08:41;4.43;;;4.03;;
50757;SDS011;36732;47.980;11.652;2024-01-07T12:11:08;3.35;;;2.75;;
50757;SDS011;36732;47.980;11.652;2024-01-07T12:13:39;3.78;;;2.35;;
50757;SDS011;36732;47.980;11.652;2024-01-07T12:16:06;4.75;;;2.60;;
50757;SDS011;36732;47.980;11.652;2024-01-07T12:18:36;4.25;;;3.40;;
50757;SDS011;36732;47.980;11.652;2024-01-07T12:21:03;4.93;;;2.75;;
50757;SDS011;36732;47.980;11.652;2024-01-07T12:23:33;3.03;;;2.60;;
50757;SDS011;36732;47.980;11.652;2024-01-07T12:26:08;3.72;;;3.20;;
50757;SDS011;36732;47.980;11.652;2024-01-07T12:28:36;3.20;;;2.70;;
50757;SDS011;36732;47.980;11.652;2024-01-07T12:31:04;3.58;;;3.00;;
50757;SDS011;36732;47.980;11.652;2024-01-07T12:33:30;4.53;;;3.63;;
50757;SDS011;36732;47.980;11.652;2024-01-07T12:35:57;5.03;;;3.63;;
50757;SDS011;36732;47.980;11.652;2024-01-07T12:38:26;5.38;;;3.92;;
50757;SDS011;36732;47.980;11.652;2024-01-07T12:40:53;4.97;;;3.90;;
50757;SDS011;36732;47.980;11.652;2024-01-07T12:43:19;5.70;;;4.20;;
50757;SDS011;36732;47.980;11.652;2024-01-07T12:45:45;7.00;;;5.05;;
50757;SDS011;36732;47.980;11.652;2024-01-07T12:48:12;6.53;;;4.60;;
50757;SDS011;36732;47.980;11.652;2024-01-07T12:50:38;7.78;;;5.00;;
50757;SDS011;36732;47.980;11.652;2024-01-07T12:53:03;5.72;;;4.25;;
50757;SDS011;36732;47.980;11.652;2024-01-07T12:55:30;7.15;;;4.43;;
50757;SDS011;36732;47.980;11.652;2024-01-07T12:57:56;8.82;;;5.60;;
50757;SDS011;36732;47.980;11.652;2024-01-07T13:00:23;17.58;;;12.15;;
50757;SDS011;36732;47.980;11.652;2024-01-07T13:02:50;6.28;;;4.72;;
50757;SDS011;36732;47.980;11.652;2024-01-07T13:05:16;7.68;;;5.50;;
50757;SDS011;36732;47.980;11.652;2024-01-07T13:07:42;16.35;;;8.93;;
50757;SDS011;36732;47.980;11.652;2024-01-07T13:10:08;16.15;;;9.07;;
50757;SDS011;36732;47.980;11.652;2024-01-07T13:12:36;11.00;;;7.43;;
50757;SDS011;36732;47.980;11.652;2024-01-07T13:15:03;7.68;;;4.88;;
50757;SDS011;36732;47.980;11.652;2024-01-07T13:17:29;10.82;;;6.68;;
50757;SDS011;36732;47.980;11.652;2024-01-07T13:19:57;13.77;;;9.25;;
50757;SDS011;36732;47.980;11.652;2024-01-07T13:22:24;7.60;;;4.95;;
50757;SDS011;36732;47.980;11.652;2024-01-07T13:24:50;11.25;;;9.52;;
50757;SDS011;36732;47.980;11.652;2024-01-07T13:27:16;4.55;;;4.05;;
50757;SDS011;36732;47.980;11.652;2024-01-07T13:29:44;5.35;;;3.67;;
50757;SDS011;36732;47.980;11.652;2024-01-07T13:32:12;4.60;;;3.33;;
50757;SDS011;36732;47.980;11.652;2024-01-07T13:34:42;4.20;;;3.20;;
50757;SDS011;36732;47.980;11.652;2024-01-07T13:37:08;10.98;;;6.68;;
50757;SDS011;36732;47.980;11.652;2024-01-07T13:39:35;24.77;;;14.27;;
50757;SDS011;36732;47.980;11.652;2024-01-07T13:42:01;35.58;;;18.45;;
50757;SDS011;36732;47.980;11.652;2024-01-07T13:44:27;10.20;;;6.78;;
50757;SDS011;36732;47.980;11.652;2024-01-07T13:46:52;4.88;;;4.15;;
50757;SDS011;36732;47.980;11.652;2024-01-07T13:49:18;4.50;;;3.38;;
50757;SDS011;36732;47.980;11.652;2024-01-07T13:51:44;4.55;;;3.42;;
50757;SDS011;36732;47.980;11.652;2024-01-07T13:54:10;4.38;;;3.50;;
50757;SDS011;36732;47.980;11.652;2024-01-07T13:56:39;3.83;;;3.03;;
50757;SDS011;36732;47.980;11.652;2024-01-07T13:59:09;5.10;;;3.05;;
50757;SDS011;36732;47.980;11.652;2024-01-07T14:01:36;4.25;;;3.08;;
50757;SDS011;36732;47.980;11.652;2024-01-07T14:04:02;3.65;;;2.90;;
50757;SDS011;36732;47.980;11.652;2024-01-07T14:06:28;4.28;;;3.00;;
50757;SDS011;36732;47.980;11.652;2024-01-07T14:08:54;5.03;;;3.40;;
50757;SDS011;36732;47.980;11.652;2024-01-07T14:11:20;3.83;;;3.42;;
50757;SDS011;36732;47.980;11.652;2024-01-07T14:13:46;3.92;;;2.80;;
50757;SDS011;36732;47.980;11.652;2024-01-07T14:16:12;3.35;;;2.85;;
50757;SDS011;36732;47.980;11.652;2024-01-07T14:18:39;5.35;;;3.08;;
50757;SDS011;36732;47.980;11.652;2024-01-07T14:21:04;4.35;;;3.53;;
50757;SDS011;36732;47.980;11.652;2024-01-07T14:23:31;5.53;;;3.05;;
50757;SDS011;36732;47.980;11.652;2024-01-07T14:25:58;4.05;;;3.03;;
50757;SDS011;36732;47.980;11.652;2024-01-07T14:28:25;3.92;;;3.28;;
50757;SDS011;36732;47.980;11.652;2024-01-07T14:30:50;4.15;;;3.20;;
50757;SDS011;36732;47.980;11.652;2024-01-07T14:33:16;5.85;;;3.53;;
50757;SDS011;36732;47.980;11.652;2024-01-07T14:35:42;5.30;;;3.85;;
50757;SDS011;36732;47.980;11.652;2024-01-07T14:38:07;4.78;;;3.63;;
50757;SDS011;36732;47.980;11.652;2024-01-07T14:40:33;4.20;;;3.35;;
50757;SDS011;36732;47.980;11.652;2024-01-07T14:42:59;5.18;;;3.88;;
50757;SDS011;36732;47.980;11.652;2024-01-07T14:45:25;5.85;;;3.90;;